sensor_id;sensor_type;location;lat;lon;timestamp;P1;durP1;ratioP1;P2;durP2;ratioP2
76576;SDS011;65441;44.748;37.600;2023-08-24T00:00:29;4.97;;;1.92;;
76576;SDS011;65441;44.748;37.600;2023-08-24T00:02:59;6.72;;;2.20;;
76576;SDS011;65441;44.748;37.600;2023-08-24T00:05:29;5.05;;;1.90;;
76576;SDS011;65441;44.748;37.600;2023-08-24T00:07:59;5.50;;;2.22;;
76576;SDS011;65441;44.748;37.600;2023-08-24T00:10:28;6.25;;;2.50;;
76576;SDS011;65441;44.748;37.600;2023-08-24T00:12:56;5.07;;;2.20;;
76576;SDS011;65441;44.748;37.600;2023-08-24T00:15:24;6.63;;;1.90;;
76576;SDS011;65441;44.748;37.600;2023-08-24T00:17:52;5.55;;;2.10;;
76576;SDS011;65441;44.748;37.600;2023-08-24T00:20:22;8.95;;;2.50;;
76576;SDS011;65441;44.748;37.600;2023-08-24T00:22:50;5.68;;;2.00;;
76576;SDS011;65441;44.748;37.600;2023-08-24T00:25:19;6.93;;;2.42;;
76576;SDS011;65441;44.748;37.600;2023-08-24T00:27:47;6.78;;;1.83;;
76576;SDS011;65441;44.748;37.600;2023-08-24T00:30:16;7.88;;;2.30;;
76576;SDS011;65441;44.748;37.600;2023-08-24T00:32:44;7.55;;;2.22;;
76576;SDS011;65441;44.748;37.600;2023-08-24T00:35:13;5.75;;;2.00;;
76576;SDS011;65441;44.748;37.600;2023-08-24T00:37:43;5.35;;;2.15;;
76576;SDS011;65441;44.748;37.600;2023-08-24T00:40:11;6.85;;;2.42;;
76576;SDS011;65441;44.748;37.600;2023-08-24T00:42:40;6.38;;;2.25;;
76576;SDS011;65441;44.748;37.600;2023-08-24T00:45:09;5.10;;;2.13;;
76576;SDS011;65441;44.748;37.600;2023-08-24T00:47:39;7.25;;;2.50;;
76576;SDS011;65441;44.748;37.600;2023-08-24T00:50:08;7.00;;;2.13;;
76576;SDS011;65441;44.748;37.600;2023-08-24T00:52:37;9.18;;;2.50;;
76576;SDS011;65441;44.748;37.600;2023-08-24T00:55:09;5.82;;;2.20;;
76576;SDS011;65441;44.748;37.600;2023-08-24T00:57:37;6.20;;;2.00;;
76576;SDS011;65441;44.748;37.600;2023-08-24T01:00:08;5.28;;;1.90;;
76576;SDS011;65441;44.748;37.600;2023-08-24T01:02:37;8.98;;;2.15;;
76576;SDS011;65441;44.748;37.600;2023-08-24T01:05:06;6.75;;;2.20;;
76576;SDS011;65441;44.748;37.600;2023-08-24T01:07:35;6.82;;;2.22;;
76576;SDS011;65441;44.748;37.600;2023-08-24T01:10:09;5.25;;;2.15;;
76576;SDS011;65441;44.748;37.600;2023-08-24T01:12:50;5.88;;;2.28;;
76576;SDS011;65441;44.748;37.600;2023-08-24T01:15:27;5.20;;;2.20;;
76576;SDS011;65441;44.748;37.600;2023-08-24T01:18:01;4.75;;;2.13;;
76576;SDS011;65441;44.748;37.600;2023-08-24T01:20:33;6.53;;;2.20;;
76576;SDS011;65441;44.748;37.600;2023-08-24T01:23:07;6.40;;;2.60;;
76576;SDS011;65441;44.748;37.600;2023-08-24T01:25:48;5.60;;;2.20;;
76576;SDS011;65441;44.748;37.600;2023-08-24T01:28:21;6.70;;;2.63;;
76576;SDS011;65441;44.748;37.600;2023-08-24T01:30:50;4.88;;;2.10;;
76576;SDS011;65441;44.748;37.600;2023-08-24T01:33:18;5.95;;;2.63;;
76576;SDS011;65441;44.748;37.600;2023-08-24T01:35:46;4.80;;;2.00;;
76576;SDS011;65441;44.748;37.600;2023-08-24T01:38:15;5.75;;;2.45;;
76576;SDS011;65441;44.748;37.600;2023-08-24T01:40:48;7.38;;;2.33;;
76576;SDS011;65441;44.748;37.600;2023-08-24T01:43:25;6.05;;;1.80;;
76576;SDS011;65441;44.748;37.600;2023-08-24T01:45:56;4.53;;;1.80;;
76576;SDS011;65441;44.748;37.600;2023-08-24T01:48:26;6.07;;;2.38;;
76576;SDS011;65441;44.748;37.600;2023-08-24T01:50:54;7.43;;;2.20;;
76576;SDS011;65441;44.748;37.600;2023-08-24T01:53:25;5.88;;;2.33;;
76576;SDS011;65441;44.748;37.600;2023-08-24T01:55:56;6.45;;;2.28;;
76576;SDS011;65441;44.748;37.600;2023-08-24T01:58:26;5.63;;;2.30;;
76576;SDS011;65441;44.748;37.600;2023-08-24T02:00:54;5.47;;;2.28;;
76576;SDS011;65441;44.748;37.600;2023-08-24T02:03:22;6.40;;;2.30;;
76576;SDS011;65441;44.748;37.600;2023-08-24T02:05:50;8.80;;;2.50;;
76576;SDS011;65441;44.748;37.600;2023-08-24T02:08:18;6.95;;;2.15;;
76576;SDS011;65441;44.748;37.600;2023-08-24T02:10:46;7.60;;;2.42;;
76576;SDS011;65441;44.748;37.600;2023-08-24T02:13:15;5.63;;;2.10;;
76576;SDS011;65441;44.748;37.600;2023-08-24T02:15:44;6.93;;;2.30;;
76576;SDS011;65441;44.748;37.600;2023-08-24T02:18:13;7.57;;;2.50;;
76576;SDS011;65441;44.748;37.600;2023-08-24T02:20:41;8.25;;;2.38;;
76576;SDS011;65441;44.748;37.600;2023-08-24T02:23:09;5.10;;;2.33;;
76576;SDS011;65441;44.748;37.600;2023-08-24T02:25:41;5.55;;;2.22;;
76576;SDS011;65441;44.748;37.600;2023-08-24T02:28:10;5.82;;;2.40;;
76576;SDS011;65441;44.748;37.600;2023-08-24T02:30:38;6.72;;;2.30;;
76576;SDS011;65441;44.748;37.600;2023-08-24T02:33:08;6.72;;;2.17;;
76576;SDS011;65441;44.748;37.600;2023-08-24T02:35:36;7.18;;;2.22;;
76576;SDS011;65441;44.748;37.600;2023-08-24T02:38:05;5.30;;;2.38;;
76576;SDS011;65441;44.748;37.600;2023-08-24T02:40:33;6.15;;;2.50;;
76576;SDS011;65441;44.748;37.600;2023-08-24T02:43:01;5.55;;;2.20;;
76576;SDS011;65441;44.748;37.600;2023-08-24T02:45:30;6.20;;;2.67;;
76576;SDS011;65441;44.748;37.600;2023-08-24T02:47:59;9.77;;;2.83;;
76576;SDS011;65441;44.748;37.600;2023-08-24T02:50:28;5.00;;;2.22;;
76576;SDS011;65441;44.748;37.600;2023-08-24T02:52:57;9.27;;;2.50;;
76576;SDS011;65441;44.748;37.600;2023-08-24T02:55:27;4.40;;;1.80;;
76576;SDS011;65441;44.748;37.600;2023-08-24T02:58:02;7.63;;;2.50;;
76576;SDS011;65441;44.748;37.600;2023-08-24T03:00:33;5.72;;;2.38;;
76576;SDS011;65441;44.748;37.600;2023-08-24T03:03:04;6.20;;;2.50;;
76576;SDS011;65441;44.748;37.600;2023-08-24T03:05:35;7.13;;;2.50;;
76576;SDS011;65441;44.748;37.600;2023-08-24T03:08:04;7.20;;;2.17;;
76576;SDS011;65441;44.748;37.600;2023-08-24T03:10:34;6.68;;;2.55;;
76576;SDS011;65441;44.748;37.600;2023-08-24T03:13:03;5.82;;;2.20;;
76576;SDS011;65441;44.748;37.600;2023-08-24T03:15:31;7.25;;;2.22;;
76576;SDS011;65441;44.748;37.600;2023-08-24T03:18:00;9.95;;;2.22;;
76576;SDS011;65441;44.748;37.600;2023-08-24T03:20:29;6.53;;;2.22;;
76576;SDS011;65441;44.748;37.600;2023-08-24T03:22:59;9.73;;;2.42;;
76576;SDS011;65441;44.748;37.600;2023-08-24T03:25:29;6.25;;;2.40;;
76576;SDS011;65441;44.748;37.600;2023-08-24T03:27:58;4.90;;;2.38;;
76576;SDS011;65441;44.748;37.600;2023-08-24T03:30:27;6.40;;;2.42;;
76576;SDS011;65441;44.748;37.600;2023-08-24T03:32:56;7.45;;;2.40;;
76576;SDS011;65441;44.748;37.600;2023-08-24T03:35:29;7.80;;;2.70;;
76576;SDS011;65441;44.748;37.600;2023-08-24T03:38:00;8.13;;;2.45;;
76576;SDS011;65441;44.748;37.600;2023-08-24T03:40:29;8.73;;;2.50;;
76576;SDS011;65441;44.748;37.600;2023-08-24T03:42:57;6.20;;;2.05;;
76576;SDS011;65441;44.748;37.600;2023-08-24T03:45:26;10.15;;;2.97;;
76576;SDS011;65441;44.748;37.600;2023-08-24T03:47:54;8.52;;;2.50;;
76576;SDS011;65441;44.748;37.600;2023-08-24T03:50:23;7.57;;;2.22;;
76576;SDS011;65441;44.748;37.600;2023-08-24T03:52:52;10.27;;;2.50;;
76576;SDS011;65441;44.748;37.600;2023-08-24T03:55:23;5.82;;;2.30;;
76576;SDS011;65441;44.748;37.600;2023-08-24T03:57:51;7.05;;;2.40;;
76576;SDS011;65441;44.748;37.600;2023-08-24T04:00:20;6.40;;;2.13;;
76576;SDS011;65441;44.748;37.600;2023-08-24T04:02:49;10.43;;;2.60;;
76576;SDS011;65441;44.748;37.600;2023-08-24T04:05:22;9.05;;;2.63;;
76576;SDS011;65441;44.748;37.600;2023-08-24T04:07:52;9.30;;;2.67;;
76576;SDS011;65441;44.748;37.600;2023-08-24T04:10:21;8.02;;;2.70;;
76576;SDS011;65441;44.748;37.600;2023-08-24T04:12:51;7.90;;;2.45;;
76576;SDS011;65441;44.748;37.600;2023-08-24T04:15:20;8.38;;;2.33;;
76576;SDS011;65441;44.748;37.600;2023-08-24T04:17:49;6.47;;;2.30;;
76576;SDS011;65441;44.748;37.600;2023-08-24T04:20:18;6.18;;;2.42;;
76576;SDS011;65441;44.748;37.600;2023-08-24T04:22:47;8.85;;;2.60;;
76576;SDS011;65441;44.748;37.600;2023-08-24T04:25:15;10.05;;;2.65;;
76576;SDS011;65441;44.748;37.600;2023-08-24T04:27:45;9.07;;;2.50;;
76576;SDS011;65441;44.748;37.600;2023-08-24T04:30:13;7.15;;;2.13;;
76576;SDS011;65441;44.748;37.600;2023-08-24T04:32:41;6.90;;;2.28;;
76576;SDS011;65441;44.748;37.600;2023-08-24T04:35:09;8.27;;;2.28;;
76576;SDS011;65441;44.748;37.600;2023-08-24T04:37:38;9.07;;;2.40;;
76576;SDS011;65441;44.748;37.600;2023-08-24T04:40:07;7.82;;;2.55;;
76576;SDS011;65441;44.748;37.600;2023-08-24T04:42:37;12.18;;;2.63;;
76576;SDS011;65441;44.748;37.600;2023-08-24T04:45:07;5.35;;;2.10;;
76576;SDS011;65441;44.748;37.600;2023-08-24T04:47:35;7.63;;;2.10;;
76576;SDS011;65441;44.748;37.600;2023-08-24T04:50:04;6.05;;;2.42;;
76576;SDS011;65441;44.748;37.600;2023-08-24T04:52:33;7.60;;;2.33;;
76576;SDS011;65441;44.748;37.600;2023-08-24T04:55:01;7.50;;;2.55;;
76576;SDS011;65441;44.748;37.600;2023-08-24T04:57:29;8.32;;;1.95;;
76576;SDS011;65441;44.748;37.600;2023-08-24T04:59:57;6.88;;;2.83;;
76576;SDS011;65441;44.748;37.600;2023-08-24T05:02:27;8.10;;;2.42;;
76576;SDS011;65441;44.748;37.600;2023-08-24T05:04:55;7.55;;;2.20;;
76576;SDS011;65441;44.748;37.600;2023-08-24T05:07:23;6.60;;;2.10;;
76576;SDS011;65441;44.748;37.600;2023-08-24T05:09:53;6.82;;;2.42;;
76576;SDS011;65441;44.748;37.600;2023-08-24T05:12:21;5.80;;;2.42;;
76576;SDS011;65441;44.748;37.600;2023-08-24T05:14:49;6.20;;;2.15;;
76576;SDS011;65441;44.748;37.600;2023-08-24T05:17:17;8.60;;;2.70;;
76576;SDS011;65441;44.748;37.600;2023-08-24T05:19:49;6.43;;;2.30;;
76576;SDS011;65441;44.748;37.600;2023-08-24T05:22:19;7.85;;;2.05;;
76576;SDS011;65441;44.748;37.600;2023-08-24T05:24:48;7.45;;;2.63;;
76576;SDS011;65441;44.748;37.600;2023-08-24T05:27:18;8.63;;;2.63;;
76576;SDS011;65441;44.748;37.600;2023-08-24T05:29:46;8.02;;;2.40;;
76576;SDS011;65441;44.748;37.600;2023-08-24T05:32:16;5.68;;;2.20;;
76576;SDS011;65441;44.748;37.600;2023-08-24T05:34:44;7.53;;;2.40;;
76576;SDS011;65441;44.748;37.600;2023-08-24T05:37:14;6.40;;;2.20;;
76576;SDS011;65441;44.748;37.600;2023-08-24T05:39:42;5.97;;;2.10;;
76576;SDS011;65441;44.748;37.600;2023-08-24T05:42:11;8.82;;;2.63;;
76576;SDS011;65441;44.748;37.600;2023-08-24T05:44:39;6.03;;;2.28;;
76576;SDS011;65441;44.748;37.600;2023-08-24T05:47:07;5.72;;;2.45;;
76576;SDS011;65441;44.748;37.600;2023-08-24T05:49:36;7.15;;;2.50;;
76576;SDS011;65441;44.748;37.600;2023-08-24T05:52:04;6.05;;;1.85;;
76576;SDS011;65441;44.748;37.600;2023-08-24T05:54:37;5.70;;;2.40;;
76576;SDS011;65441;44.748;37.600;2023-08-24T05:57:08;6.10;;;2.40;;
76576;SDS011;65441;44.748;37.600;2023-08-24T05:59:38;7.38;;;2.35;;
76576;SDS011;65441;44.748;37.600;2023-08-24T06:02:09;7.22;;;2.42;;
76576;SDS011;65441;44.748;37.600;2023-08-24T06:04:40;7.40;;;2.47;;
76576;SDS011;65441;44.748;37.600;2023-08-24T06:07:09;8.10;;;2.30;;
76576;SDS011;65441;44.748;37.600;2023-08-24T06:09:40;6.38;;;2.30;;
76576;SDS011;65441;44.748;37.600;2023-08-24T06:12:13;7.97;;;2.63;;
76576;SDS011;65441;44.748;37.600;2023-08-24T06:14:46;8.60;;;2.50;;
76576;SDS011;65441;44.748;37.600;2023-08-24T06:17:17;6.60;;;2.30;;
76576;SDS011;65441;44.748;37.600;2023-08-24T06:19:49;8.98;;;2.55;;
76576;SDS011;65441;44.748;37.600;2023-08-24T06:22:19;6.07;;;2.40;;
76576;SDS011;65441;44.748;37.600;2023-08-24T06:24:50;8.60;;;2.42;;
76576;SDS011;65441;44.748;37.600;2023-08-24T06:27:21;6.70;;;2.40;;
76576;SDS011;65441;44.748;37.600;2023-08-24T06:29:54;8.02;;;2.10;;
76576;SDS011;65441;44.748;37.600;2023-08-24T06:32:26;10.35;;;2.72;;
76576;SDS011;65441;44.748;37.600;2023-08-24T06:34:58;9.35;;;2.08;;
76576;SDS011;65441;44.748;37.600;2023-08-24T06:37:30;7.93;;;2.80;;
76576;SDS011;65441;44.748;37.600;2023-08-24T06:40:04;9.02;;;2.53;;
76576;SDS011;65441;44.748;37.600;2023-08-24T06:42:37;5.60;;;2.42;;
76576;SDS011;65441;44.748;37.600;2023-08-24T07:23:11;6.38;;;2.00;;
76576;SDS011;65441;44.748;37.600;2023-08-24T07:25:39;6.95;;;2.30;;
76576;SDS011;65441;44.748;37.600;2023-08-24T07:28:13;6.78;;;2.83;;
76576;SDS011;65441;44.748;37.600;2023-08-24T07:30:44;6.45;;;2.50;;
76576;SDS011;65441;44.748;37.600;2023-08-24T07:33:14;5.97;;;1.95;;
76576;SDS011;65441;44.748;37.600;2023-08-24T07:35:47;6.65;;;2.15;;
76576;SDS011;65441;44.748;37.600;2023-08-24T07:38:19;6.70;;;2.10;;
76576;SDS011;65441;44.748;37.600;2023-08-24T07:40:53;5.53;;;2.10;;
76576;SDS011;65441;44.748;37.600;2023-08-24T07:43:24;8.73;;;1.90;;
76576;SDS011;65441;44.748;37.600;2023-08-24T07:45:53;7.20;;;2.40;;
76576;SDS011;65441;44.748;37.600;2023-08-24T07:48:25;6.00;;;2.03;;
76576;SDS011;65441;44.748;37.600;2023-08-24T07:50:57;5.93;;;2.03;;
76576;SDS011;65441;44.748;37.600;2023-08-24T07:53:30;5.45;;;2.20;;
76576;SDS011;65441;44.748;37.600;2023-08-24T07:56:01;7.63;;;1.92;;
76576;SDS011;65441;44.748;37.600;2023-08-24T07:58:35;6.45;;;2.10;;
76576;SDS011;65441;44.748;37.600;2023-08-24T08:01:09;8.15;;;2.08;;
76576;SDS011;65441;44.748;37.600;2023-08-24T08:03:40;5.10;;;1.83;;
76576;SDS011;65441;44.748;37.600;2023-08-24T08:06:13;5.82;;;1.90;;
76576;SDS011;65441;44.748;37.600;2023-08-24T08:08:50;9.00;;;2.13;;
76576;SDS011;65441;44.748;37.600;2023-08-24T08:11:25;7.90;;;2.08;;
76576;SDS011;65441;44.748;37.600;2023-08-24T08:13:59;6.05;;;2.05;;
76576;SDS011;65441;44.748;37.600;2023-08-24T08:16:33;8.75;;;2.10;;
76576;SDS011;65441;44.748;37.600;2023-08-24T08:19:08;7.43;;;2.05;;
76576;SDS011;65441;44.748;37.600;2023-08-24T08:21:42;7.40;;;2.28;;
76576;SDS011;65441;44.748;37.600;2023-08-24T08:24:13;6.55;;;2.42;;
76576;SDS011;65441;44.748;37.600;2023-08-24T08:26:46;6.15;;;2.13;;
76576;SDS011;65441;44.748;37.600;2023-08-24T08:29:19;5.80;;;2.10;;
76576;SDS011;65441;44.748;37.600;2023-08-24T08:31:52;7.88;;;2.03;;
76576;SDS011;65441;44.748;37.600;2023-08-24T08:34:24;5.70;;;2.33;;
76576;SDS011;65441;44.748;37.600;2023-08-24T08:36:55;8.50;;;2.40;;
76576;SDS011;65441;44.748;37.600;2023-08-24T08:39:27;11.75;;;2.30;;
76576;SDS011;65441;44.748;37.600;2023-08-24T08:42:02;5.40;;;2.20;;
76576;SDS011;65441;44.748;37.600;2023-08-24T08:44:39;7.63;;;2.10;;
76576;SDS011;65441;44.748;37.600;2023-08-24T08:47:17;8.60;;;2.47;;
76576;SDS011;65441;44.748;37.600;2023-08-24T08:49:53;5.53;;;2.35;;
76576;SDS011;65441;44.748;37.600;2023-08-24T08:52:29;5.72;;;2.60;;
76576;SDS011;65441;44.748;37.600;2023-08-24T08:55:04;5.82;;;1.88;;
76576;SDS011;65441;44.748;37.600;2023-08-24T08:57:39;7.55;;;2.20;;
76576;SDS011;65441;44.748;37.600;2023-08-24T09:00:12;7.97;;;2.20;;
76576;SDS011;65441;44.748;37.600;2023-08-24T09:02:48;6.03;;;2.35;;
76576;SDS011;65441;44.748;37.600;2023-08-24T09:05:21;6.78;;;1.90;;
76576;SDS011;65441;44.748;37.600;2023-08-24T09:07:55;6.28;;;2.20;;
76576;SDS011;65441;44.748;37.600;2023-08-24T09:10:32;8.52;;;1.95;;
76576;SDS011;65441;44.748;37.600;2023-08-24T09:13:05;6.60;;;1.90;;
76576;SDS011;65441;44.748;37.600;2023-08-24T09:15:36;9.55;;;2.10;;
76576;SDS011;65441;44.748;37.600;2023-08-24T09:18:09;5.95;;;2.13;;
76576;SDS011;65441;44.748;37.600;2023-08-24T09:20:39;5.55;;;1.83;;
76576;SDS011;65441;44.748;37.600;2023-08-24T09:23:18;5.22;;;2.13;;
76576;SDS011;65441;44.748;37.600;2023-08-24T09:25:53;8.00;;;1.88;;
76576;SDS011;65441;44.748;37.600;2023-08-24T09:28:25;6.97;;;1.70;;
76576;SDS011;65441;44.748;37.600;2023-08-24T09:30:58;5.20;;;1.80;;
76576;SDS011;65441;44.748;37.600;2023-08-24T09:33:32;5.65;;;1.80;;
76576;SDS011;65441;44.748;37.600;2023-08-24T09:36:05;6.13;;;1.70;;
76576;SDS011;65441;44.748;37.600;2023-08-24T09:38:36;5.72;;;1.70;;
76576;SDS011;65441;44.748;37.600;2023-08-24T09:41:18;4.18;;;1.63;;
76576;SDS011;65441;44.748;37.600;2023-08-24T09:43:50;6.28;;;1.65;;
76576;SDS011;65441;44.748;37.600;2023-08-24T09:46:23;6.05;;;2.05;;
76576;SDS011;65441;44.748;37.600;2023-08-24T09:48:57;5.85;;;1.70;;
76576;SDS011;65441;44.748;37.600;2023-08-24T09:51:29;7.00;;;1.77;;
76576;SDS011;65441;44.748;37.600;2023-08-24T09:54:05;4.80;;;1.30;;
76576;SDS011;65441;44.748;37.600;2023-08-24T09:56:42;5.03;;;1.92;;
76576;SDS011;65441;44.748;37.600;2023-08-24T09:59:17;4.95;;;1.73;;
76576;SDS011;65441;44.748;37.600;2023-08-24T10:01:53;4.95;;;1.80;;
76576;SDS011;65441;44.748;37.600;2023-08-24T10:04:30;5.18;;;1.60;;
76576;SDS011;65441;44.748;37.600;2023-08-24T10:07:07;8.75;;;1.92;;
76576;SDS011;65441;44.748;37.600;2023-08-24T10:09:46;5.70;;;1.60;;
76576;SDS011;65441;44.748;37.600;2023-08-24T10:12:26;5.88;;;1.73;;
76576;SDS011;65441;44.748;37.600;2023-08-24T10:15:02;6.15;;;1.50;;
76576;SDS011;65441;44.748;37.600;2023-08-24T10:17:36;4.13;;;1.60;;
76576;SDS011;65441;44.748;37.600;2023-08-24T10:20:12;5.28;;;1.70;;
76576;SDS011;65441;44.748;37.600;2023-08-24T10:22:48;8.27;;;1.90;;
76576;SDS011;65441;44.748;37.600;2023-08-24T10:25:24;6.07;;;1.65;;
76576;SDS011;65441;44.748;37.600;2023-08-24T10:27:59;4.80;;;1.40;;
76576;SDS011;65441;44.748;37.600;2023-08-24T10:30:34;4.65;;;1.60;;
76576;SDS011;65441;44.748;37.600;2023-08-24T10:33:12;4.65;;;1.55;;
76576;SDS011;65441;44.748;37.600;2023-08-24T10:35:46;4.85;;;1.50;;
76576;SDS011;65441;44.748;37.600;2023-08-24T10:38:27;5.20;;;1.55;;
76576;SDS011;65441;44.748;37.600;2023-08-24T10:41:03;3.75;;;1.23;;
76576;SDS011;65441;44.748;37.600;2023-08-24T10:43:35;5.90;;;1.70;;
76576;SDS011;65441;44.748;37.600;2023-08-24T10:46:16;9.10;;;2.15;;
76576;SDS011;65441;44.748;37.600;2023-08-24T10:48:57;8.85;;;1.85;;
76576;SDS011;65441;44.748;37.600;2023-08-24T10:51:31;3.20;;;1.25;;
76576;SDS011;65441;44.748;37.600;2023-08-24T10:54:17;7.72;;;1.60;;
76576;SDS011;65441;44.748;37.600;2023-08-24T11:03:37;5.55;;;1.52;;
76576;SDS011;65441;44.748;37.600;2023-08-24T11:06:17;4.72;;;1.50;;
76576;SDS011;65441;44.748;37.600;2023-08-24T11:08:47;6.68;;;1.40;;
76576;SDS011;65441;44.748;37.600;2023-08-24T11:11:19;5.05;;;1.50;;
76576;SDS011;65441;44.748;37.600;2023-08-24T11:20:29;7.72;;;1.58;;
76576;SDS011;65441;44.748;37.600;2023-08-24T11:22:59;4.78;;;1.45;;
76576;SDS011;65441;44.748;37.600;2023-08-24T11:25:35;3.97;;;1.23;;
76576;SDS011;65441;44.748;37.600;2023-08-24T11:28:06;7.22;;;1.48;;
76576;SDS011;65441;44.748;37.600;2023-08-24T11:30:37;7.72;;;1.48;;
76576;SDS011;65441;44.748;37.600;2023-08-24T11:33:05;5.85;;;1.45;;
76576;SDS011;65441;44.748;37.600;2023-08-24T11:35:40;4.40;;;1.35;;
76576;SDS011;65441;44.748;37.600;2023-08-24T11:38:10;6.78;;;1.30;;
76576;SDS011;65441;44.748;37.600;2023-08-24T11:40:39;6.68;;;1.75;;
76576;SDS011;65441;44.748;37.600;2023-08-24T11:43:13;8.13;;;1.67;;
76576;SDS011;65441;44.748;37.600;2023-08-24T11:45:55;8.88;;;1.60;;
76576;SDS011;65441;44.748;37.600;2023-08-24T11:48:30;8.82;;;1.70;;
76576;SDS011;65441;44.748;37.600;2023-08-24T11:51:06;6.88;;;1.60;;
76576;SDS011;65441;44.748;37.600;2023-08-24T11:53:42;5.43;;;1.40;;
76576;SDS011;65441;44.748;37.600;2023-08-24T11:56:11;9.65;;;1.60;;
76576;SDS011;65441;44.748;37.600;2023-08-24T11:58:47;6.32;;;1.40;;
76576;SDS011;65441;44.748;37.600;2023-08-24T12:01:21;8.52;;;1.83;;
76576;SDS011;65441;44.748;37.600;2023-08-24T12:03:53;4.57;;;1.42;;
76576;SDS011;65441;44.748;37.600;2023-08-24T12:06:30;4.70;;;1.30;;
76576;SDS011;65441;44.748;37.600;2023-08-24T12:09:06;6.18;;;1.60;;
76576;SDS011;65441;44.748;37.600;2023-08-24T12:11:38;6.13;;;2.25;;
76576;SDS011;65441;44.748;37.600;2023-08-24T12:14:18;7.93;;;1.50;;
76576;SDS011;65441;44.748;37.600;2023-08-24T12:16:50;6.30;;;1.50;;
76576;SDS011;65441;44.748;37.600;2023-08-24T12:19:22;5.97;;;1.73;;
76576;SDS011;65441;44.748;37.600;2023-08-24T12:21:51;7.47;;;1.48;;
76576;SDS011;65441;44.748;37.600;2023-08-24T12:24:20;4.50;;;1.40;;
76576;SDS011;65441;44.748;37.600;2023-08-24T12:26:55;11.77;;;1.80;;
76576;SDS011;65441;44.748;37.600;2023-08-24T12:29:24;6.28;;;1.50;;
76576;SDS011;65441;44.748;37.600;2023-08-24T12:31:56;5.18;;;1.48;;
76576;SDS011;65441;44.748;37.600;2023-08-24T12:34:25;5.47;;;1.20;;
76576;SDS011;65441;44.748;37.600;2023-08-24T12:36:56;3.80;;;1.20;;
76576;SDS011;65441;44.748;37.600;2023-08-24T12:39:24;5.03;;;1.38;;
76576;SDS011;65441;44.748;37.600;2023-08-24T12:41:52;5.35;;;1.20;;
76576;SDS011;65441;44.748;37.600;2023-08-24T12:44:21;4.38;;;1.20;;
76576;SDS011;65441;44.748;37.600;2023-08-24T12:46:52;4.28;;;1.30;;
76576;SDS011;65441;44.748;37.600;2023-08-24T12:49:23;6.20;;;1.10;;
76576;SDS011;65441;44.748;37.600;2023-08-24T12:51:58;4.47;;;1.33;;
76576;SDS011;65441;44.748;37.600;2023-08-24T12:54:28;8.35;;;1.20;;
76576;SDS011;65441;44.748;37.600;2023-08-24T12:56:57;5.68;;;1.20;;
76576;SDS011;65441;44.748;37.600;2023-08-24T12:59:27;4.20;;;1.20;;
76576;SDS011;65441;44.748;37.600;2023-08-24T13:01:56;4.72;;;1.30;;
76576;SDS011;65441;44.748;37.600;2023-08-24T13:04:26;4.03;;;1.25;;
76576;SDS011;65441;44.748;37.600;2023-08-24T13:07:01;4.40;;;1.40;;
76576;SDS011;65441;44.748;37.600;2023-08-24T13:09:32;5.70;;;1.30;;
76576;SDS011;65441;44.748;37.600;2023-08-24T13:12:01;8.15;;;1.20;;
76576;SDS011;65441;44.748;37.600;2023-08-24T13:14:33;7.22;;;1.38;;
76576;SDS011;65441;44.748;37.600;2023-08-24T13:17:02;3.55;;;1.23;;
76576;SDS011;65441;44.748;37.600;2023-08-24T13:19:34;7.93;;;1.38;;
76576;SDS011;65441;44.748;37.600;2023-08-24T13:22:05;5.85;;;1.30;;
76576;SDS011;65441;44.748;37.600;2023-08-24T13:24:38;4.45;;;1.20;;
76576;SDS011;65441;44.748;37.600;2023-08-24T13:27:10;4.55;;;1.20;;
76576;SDS011;65441;44.748;37.600;2023-08-24T13:29:44;3.58;;;1.20;;
76576;SDS011;65441;44.748;37.600;2023-08-24T13:32:13;20.55;;;2.00;;
76576;SDS011;65441;44.748;37.600;2023-08-24T13:34:48;5.93;;;1.13;;
76576;SDS011;65441;44.748;37.600;2023-08-24T13:37:21;8.98;;;1.55;;
76576;SDS011;65441;44.748;37.600;2023-08-24T13:39:52;3.75;;;0.95;;
76576;SDS011;65441;44.748;37.600;2023-08-24T13:42:24;6.50;;;1.73;;
76576;SDS011;65441;44.748;37.600;2023-08-24T13:44:53;4.10;;;1.08;;
76576;SDS011;65441;44.748;37.600;2023-08-24T13:47:24;4.90;;;1.20;;
76576;SDS011;65441;44.748;37.600;2023-08-24T13:49:52;3.90;;;1.10;;
76576;SDS011;65441;44.748;37.600;2023-08-24T13:52:23;6.03;;;1.50;;
76576;SDS011;65441;44.748;37.600;2023-08-24T13:54:55;5.35;;;1.20;;
76576;SDS011;65441;44.748;37.600;2023-08-24T13:57:26;6.18;;;1.27;;
76576;SDS011;65441;44.748;37.600;2023-08-24T13:59:58;8.48;;;1.30;;
76576;SDS011;65441;44.748;37.600;2023-08-24T14:02:27;4.97;;;1.15;;
76576;SDS011;65441;44.748;37.600;2023-08-24T14:04:57;4.47;;;1.33;;
76576;SDS011;65441;44.748;37.600;2023-08-24T14:07:29;13.43;;;1.77;;
76576;SDS011;65441;44.748;37.600;2023-08-24T14:09:59;11.48;;;1.60;;
76576;SDS011;65441;44.748;37.600;2023-08-24T14:12:29;4.30;;;1.10;;
76576;SDS011;65441;44.748;37.600;2023-08-24T14:15:00;4.38;;;1.40;;
76576;SDS011;65441;44.748;37.600;2023-08-24T14:17:32;6.60;;;1.50;;
76576;SDS011;65441;44.748;37.600;2023-08-24T14:20:03;5.38;;;1.40;;
76576;SDS011;65441;44.748;37.600;2023-08-24T14:22:36;6.35;;;1.33;;
76576;SDS011;65441;44.748;37.600;2023-08-24T14:25:08;6.35;;;1.52;;
76576;SDS011;65441;44.748;37.600;2023-08-24T14:27:39;4.72;;;1.30;;
76576;SDS011;65441;44.748;37.600;2023-08-24T14:30:13;5.70;;;1.40;;
76576;SDS011;65441;44.748;37.600;2023-08-24T14:32:43;9.48;;;1.58;;
76576;SDS011;65441;44.748;37.600;2023-08-24T14:35:11;5.50;;;1.60;;
76576;SDS011;65441;44.748;37.600;2023-08-24T14:37:44;6.38;;;1.55;;
76576;SDS011;65441;44.748;37.600;2023-08-24T14:40:13;5.68;;;1.42;;
76576;SDS011;65441;44.748;37.600;2023-08-24T14:42:45;6.60;;;1.17;;
76576;SDS011;65441;44.748;37.600;2023-08-24T14:45:15;8.43;;;1.38;;
76576;SDS011;65441;44.748;37.600;2023-08-24T14:47:44;6.15;;;1.30;;
76576;SDS011;65441;44.748;37.600;2023-08-24T14:50:13;6.80;;;1.30;;
76576;SDS011;65441;44.748;37.600;2023-08-24T14:52:47;6.60;;;1.40;;
76576;SDS011;65441;44.748;37.600;2023-08-24T14:55:17;4.80;;;1.10;;
76576;SDS011;65441;44.748;37.600;2023-08-24T14:57:45;3.38;;;1.17;;
76576;SDS011;65441;44.748;37.600;2023-08-24T15:00:18;7.18;;;1.45;;
76576;SDS011;65441;44.748;37.600;2023-08-24T15:02:47;6.78;;;1.40;;
76576;SDS011;65441;44.748;37.600;2023-08-24T15:05:15;6.60;;;1.33;;
76576;SDS011;65441;44.748;37.600;2023-08-24T15:07:48;5.15;;;1.27;;
76576;SDS011;65441;44.748;37.600;2023-08-24T15:10:17;4.07;;;1.00;;
76576;SDS011;65441;44.748;37.600;2023-08-24T15:12:45;7.38;;;1.48;;
76576;SDS011;65441;44.748;37.600;2023-08-24T15:15:14;4.72;;;1.40;;
76576;SDS011;65441;44.748;37.600;2023-08-24T15:17:44;5.25;;;1.15;;
76576;SDS011;65441;44.748;37.600;2023-08-24T15:20:12;7.57;;;1.30;;
76576;SDS011;65441;44.748;37.600;2023-08-24T15:22:41;3.60;;;1.10;;
76576;SDS011;65441;44.748;37.600;2023-08-24T15:25:11;4.97;;;1.30;;
76576;SDS011;65441;44.748;37.600;2023-08-24T15:27:39;6.40;;;1.30;;
76576;SDS011;65441;44.748;37.600;2023-08-24T15:30:08;4.50;;;1.08;;
76576;SDS011;65441;44.748;37.600;2023-08-24T15:32:36;5.38;;;1.35;;
76576;SDS011;65441;44.748;37.600;2023-08-24T15:35:05;5.38;;;1.63;;
76576;SDS011;65441;44.748;37.600;2023-08-24T15:37:33;5.38;;;1.13;;
76576;SDS011;65441;44.748;37.600;2023-08-24T15:40:02;4.43;;;1.40;;
76576;SDS011;65441;44.748;37.600;2023-08-24T15:42:32;5.45;;;1.40;;
76576;SDS011;65441;44.748;37.600;2023-08-24T15:45:00;4.35;;;1.30;;
76576;SDS011;65441;44.748;37.600;2023-08-24T15:47:31;6.35;;;1.40;;